Inicio METAR Ruta Wind Satelite

Informe Meteorológico

Fecha: 2024/06/18 18:52:12 Local
2024.06.18 23:52 UTC


Operación:VFR
SKVV 190000Z 00000KT 9999 FEW023 25/21 Q1010 =

SKVV 182200Z 34004KT 9999 FEW023 SCT090 26/20 Q1010
SKVV 182100Z 30007KT 9999 FEW023 SCT090 26/20 Q1010
SKVV 182000Z 09005KT 9999 VCSH FEW023 30/22 Q1009 RMK VCSH/NW
SKVV 181900Z 10004KT 9999 FEW023 32/22 Q1010
SKVV 181800Z 08004KT 9999 FEW023 32/22 Q1011